createdAt,value
2019-03-30T00:00:08.332Z,30.70
2019-03-30T00:02:39.240Z,31.40
2019-03-30T00:05:08.576Z,29.32
2019-03-30T00:07:37.937Z,34.00
2019-03-30T00:10:08.851Z,30.95
2019-03-30T00:12:38.155Z,27.42
2019-03-30T00:15:07.440Z,31.23
2019-03-30T00:17:36.822Z,29.57
2019-03-30T00:20:06.543Z,30.20
2019-03-30T00:22:35.855Z,29.98
2019-03-30T00:25:06.425Z,31.37
2019-03-30T00:27:35.818Z,29.18
2019-03-30T00:30:08.393Z,28.38
2019-03-30T00:32:37.735Z,27.82
2019-03-30T00:35:07.049Z,30.45
2019-03-30T00:37:36.335Z,31.35
2019-03-30T00:40:07.259Z,29.23
2019-03-30T00:42:36.614Z,29.45
2019-03-30T00:45:06.749Z,29.30
2019-03-30T00:47:36.036Z,27.87
2019-03-30T00:50:05.650Z,30.90
2019-03-30T00:52:34.952Z,28.87
2019-03-30T00:55:06.653Z,29.15
2019-03-30T00:57:36.016Z,25.92
2019-03-30T01:00:07.187Z,28.70
2019-03-30T01:02:36.517Z,30.88
2019-03-30T01:05:06.791Z,30.60
2019-03-30T01:07:36.141Z,28.45
2019-03-30T01:10:06.373Z,26.75
2019-03-30T01:12:35.741Z,27.07
2019-03-30T01:15:06.901Z,30.65
2019-03-30T01:17:36.209Z,28.65
2019-03-30T01:20:07.081Z,28.30
2019-03-30T01:22:36.469Z,29.98
2019-03-30T01:25:07.383Z,31.00
2019-03-30T01:27:36.753Z,29.27
2019-03-30T01:30:06.740Z,31.55
2019-03-30T01:32:36.971Z,28.65
2019-03-30T01:35:07.481Z,30.10
2019-03-30T01:37:36.727Z,30.35
2019-03-30T01:40:07.420Z,27.65
2019-03-30T01:42:36.709Z,27.73
2019-03-30T01:45:07.866Z,28.87
2019-03-30T01:47:37.155Z,30.70
2019-03-30T01:50:17.149Z,29.52
2019-03-30T01:52:39.175Z,30.10
2019-03-30T01:55:08.484Z,28.27
2019-03-30T01:57:37.819Z,27.70
2019-03-30T02:00:08.326Z,30.23
2019-03-30T02:02:37.853Z,30.12
2019-03-30T02:05:08.283Z,32.85
2019-03-30T02:07:37.552Z,31.02
2019-03-30T02:10:07.897Z,28.67
2019-03-30T02:12:37.426Z,31.10
2019-03-30T02:15:06.884Z,29.18
2019-03-30T02:17:36.163Z,29.37
2019-03-30T02:20:07.280Z,29.35
2019-03-30T02:22:36.654Z,27.37
2019-03-30T02:25:07.575Z,31.75
2019-03-30T02:27:36.859Z,30.20
2019-03-30T02:30:07.325Z,29.52
2019-03-30T02:32:36.668Z,30.15
2019-03-30T02:35:06.762Z,28.27
2019-03-30T02:37:36.085Z,29.75
2019-03-30T02:40:06.684Z,34.58
2019-03-30T02:42:35.888Z,27.87
2019-03-30T02:45:06.127Z,29.37
2019-03-30T02:47:35.320Z,29.52
2019-03-30T02:50:06.255Z,29.72
2019-03-30T02:52:35.544Z,29.85
2019-03-30T02:55:06.337Z,30.95
2019-03-30T02:57:35.634Z,31.68
2019-03-30T03:00:08.237Z,30.17
2019-03-30T03:02:37.526Z,26.40
2019-03-30T03:05:07.291Z,31.93
2019-03-30T03:07:36.471Z,30.48
2019-03-30T03:10:06.869Z,34.25
2019-03-30T03:12:36.126Z,32.40
2019-03-30T03:15:07.682Z,29.77
2019-03-30T03:17:36.866Z,31.35
2019-03-30T03:20:06.472Z,30.52
2019-03-30T03:22:35.650Z,33.02
2019-03-30T03:25:06.146Z,31.82
2019-03-30T03:27:35.328Z,29.02
2019-03-30T03:30:05.349Z,30.25
2019-03-30T03:32:34.627Z,29.98
2019-03-30T03:35:04.020Z,29.42
2019-03-30T03:37:44.794Z,31.77
2019-03-30T03:40:06.869Z,29.40
2019-03-30T03:42:36.186Z,32.05
2019-03-30T03:45:07.380Z,30.27
2019-03-30T03:47:36.771Z,28.73
2019-03-30T03:50:06.962Z,29.70
2019-03-30T03:52:36.121Z,30.85
2019-03-30T03:55:05.577Z,30.10
2019-03-30T03:57:36.847Z,29.45
2019-03-30T04:00:18.915Z,28.10
2019-03-30T04:02:48.157Z,33.85
2019-03-30T04:05:17.343Z,32.33
2019-03-30T04:07:46.625Z,29.42
2019-03-30T04:10:15.986Z,35.13
2019-03-30T04:12:45.261Z,29.95
2019-03-30T04:15:23.952Z,31.75
2019-03-30T04:17:53.138Z,31.85
2019-03-30T04:20:25.311Z,31.52
2019-03-30T04:22:54.524Z,30.43
2019-03-30T04:25:23.753Z,32.95
2019-03-30T04:27:53.019Z,37.00
2019-03-30T04:30:22.200Z,32.95
2019-03-30T04:32:51.404Z,34.13
2019-03-30T04:35:20.615Z,38.92
2019-03-30T04:37:49.820Z,37.00
2019-03-30T04:40:19.160Z,34.55
2019-03-30T04:42:48.419Z,36.28
2019-03-30T04:45:17.616Z,37.17
2019-03-30T04:47:46.787Z,33.18
2019-03-30T04:50:16.025Z,38.35
2019-03-30T04:52:45.317Z,36.17
2019-03-30T04:55:14.561Z,39.45
2019-03-30T04:57:43.751Z,36.28
2019-03-30T05:00:12.944Z,36.73
2019-03-30T05:02:42.123Z,34.95
2019-03-30T05:05:11.295Z,37.28
2019-03-30T05:07:40.465Z,39.25
2019-03-30T05:10:09.785Z,37.17
2019-03-30T05:12:38.967Z,36.58
2019-03-30T05:15:09.199Z,37.10
2019-03-30T05:17:47.697Z,36.73
2019-03-30T05:20:09.453Z,38.45
2019-03-30T05:22:38.639Z,38.70
2019-03-30T05:25:07.814Z,37.88
2019-03-30T05:27:37.086Z,34.63
2019-03-30T05:30:07.334Z,38.90
2019-03-30T05:32:36.527Z,40.75
2019-03-30T05:35:06.913Z,40.80
2019-03-30T05:37:36.175Z,44.90
2019-03-30T05:40:06.837Z,35.15
2019-03-30T05:42:36.074Z,36.25
2019-03-30T05:45:06.607Z,36.05
2019-03-30T05:47:35.777Z,43.85
2019-03-30T05:50:08.415Z,34.83
2019-03-30T05:52:37.640Z,40.33
2019-03-30T05:55:06.959Z,35.03
2019-03-30T05:57:36.307Z,36.90
2019-03-30T06:00:07.140Z,39.08
2019-03-30T06:02:36.604Z,40.10
2019-03-30T06:05:05.865Z,37.15
2019-03-30T06:07:35.099Z,39.58
2019-03-30T06:10:06.098Z,33.95
2019-03-30T06:12:35.539Z,34.58
2019-03-30T06:15:07.293Z,36.03
2019-03-30T06:17:36.525Z,33.18
2019-03-30T06:20:06.729Z,34.30
2019-03-30T06:22:40.532Z,31.12
2019-03-30T06:25:07.002Z,29.70
2019-03-30T06:27:37.202Z,32.53
2019-03-30T06:30:22.771Z,31.48
2019-03-30T06:32:51.957Z,32.93
2019-03-30T06:35:21.279Z,31.73
2019-03-30T06:37:50.453Z,31.85
2019-03-30T06:40:19.715Z,36.30
2019-03-30T06:42:48.886Z,33.13
2019-03-30T06:45:18.154Z,35.28
2019-03-30T06:47:47.426Z,38.70
2019-03-30T06:50:16.659Z,35.35
2019-03-30T06:52:56.714Z,35.80
2019-03-30T06:55:16.718Z,35.45
2019-03-30T06:57:45.979Z,32.38
2019-03-30T07:00:15.139Z,35.10
2019-03-30T07:02:44.325Z,32.25
2019-03-30T07:05:13.632Z,37.25
2019-03-30T07:07:44.687Z,36.50
2019-03-30T07:10:13.951Z,35.17
2019-03-30T07:12:43.797Z,32.23
2019-03-30T07:15:13.013Z,33.23
2019-03-30T07:17:46.482Z,37.78
2019-03-30T07:20:24.502Z,33.95
2019-03-30T07:22:54.047Z,33.18
2019-03-30T07:25:26.207Z,39.78
2019-03-30T07:27:55.827Z,36.83
2019-03-30T07:30:25.141Z,34.20
2019-03-30T07:32:54.470Z,38.78
2019-03-30T07:35:23.799Z,36.75
2019-03-30T07:37:53.185Z,33.58
2019-03-30T07:40:22.516Z,35.60
2019-03-30T07:42:51.685Z,35.30
2019-03-30T07:45:20.925Z,36.58
2019-03-30T07:47:50.106Z,36.68
2019-03-30T07:50:19.620Z,37.85
2019-03-30T07:52:48.896Z,36.48
2019-03-30T07:55:18.091Z,40.83
2019-03-30T07:57:47.325Z,40.48
2019-03-30T08:00:16.672Z,40.55
2019-03-30T08:02:45.924Z,39.98
2019-03-30T08:05:15.102Z,41.88
2019-03-30T08:07:44.355Z,39.85
2019-03-30T08:10:13.742Z,38.70
2019-03-30T08:12:42.994Z,40.33
2019-03-30T08:15:12.239Z,41.92
2019-03-30T08:17:41.494Z,38.53
2019-03-30T08:20:10.672Z,41.10
2019-03-30T08:22:39.935Z,40.45
2019-03-30T08:25:10.268Z,41.68
2019-03-30T08:27:39.462Z,41.15
2019-03-30T08:30:08.626Z,38.83
2019-03-30T08:32:37.941Z,41.40
2019-03-30T08:35:07.506Z,45.00
2019-03-30T08:37:36.940Z,43.80
2019-03-30T08:40:07.385Z,39.78
2019-03-30T08:42:36.642Z,42.30
2019-03-30T08:45:07.151Z,40.43
2019-03-30T08:47:36.489Z,37.25
2019-03-30T08:50:06.901Z,39.10
2019-03-30T08:52:36.077Z,44.73
2019-03-30T08:55:07.304Z,45.10
2019-03-30T08:57:36.634Z,43.00
2019-03-30T09:00:06.253Z,47.35
2019-03-30T09:02:37.486Z,43.83
2019-03-30T09:05:07.350Z,46.55
2019-03-30T09:07:36.611Z,44.53
2019-03-30T09:10:07.706Z,41.80
2019-03-30T09:12:37.106Z,44.00
2019-03-30T09:15:07.256Z,48.85
2019-03-30T09:17:37.390Z,43.08
2019-03-30T09:20:07.932Z,41.80
2019-03-30T09:22:37.317Z,43.92
2019-03-30T09:25:06.659Z,43.05
2019-03-30T09:27:35.907Z,38.23
2019-03-30T09:30:07.506Z,47.43
2019-03-30T09:32:36.891Z,39.60
2019-03-30T09:35:07.012Z,50.90
2019-03-30T09:37:36.179Z,39.10
2019-03-30T09:40:08.493Z,40.48
2019-03-30T09:42:37.824Z,38.10
2019-03-30T10:06:33.473Z,42.45
2019-03-30T10:08:52.088Z,41.30
2019-03-30T10:11:21.387Z,38.95
2019-03-30T10:13:50.545Z,46.73
2019-03-30T10:16:19.879Z,41.25
2019-03-30T10:18:49.108Z,43.50
2019-03-30T10:21:18.507Z,43.50
2019-03-30T10:23:49.485Z,48.40
2019-03-30T10:26:18.755Z,47.75
2019-03-30T10:28:47.938Z,47.53
2019-03-30T10:31:17.314Z,50.35
2019-03-30T10:33:46.577Z,50.50
2019-03-30T10:36:15.823Z,52.80
2019-03-30T10:38:45.192Z,50.75
2019-03-30T10:41:17.108Z,50.70
2019-03-30T10:43:46.454Z,48.83
2019-03-30T10:46:15.865Z,45.25
2019-03-30T10:48:45.143Z,43.63
2019-03-30T10:51:14.486Z,48.38
2019-03-30T10:53:43.808Z,49.15
2019-03-30T10:56:15.209Z,49.80
2019-03-30T10:58:44.532Z,54.50
2019-03-30T11:01:13.916Z,42.23
2019-03-30T11:03:43.179Z,44.95
2019-03-30T11:06:12.369Z,47.13
2019-03-30T11:08:41.694Z,47.58
2019-03-30T11:11:10.865Z,46.18
2019-03-30T11:13:40.258Z,45.48
2019-03-30T11:16:09.410Z,43.68
2019-03-30T11:18:38.906Z,45.78
2019-03-30T11:21:08.230Z,44.98
2019-03-30T11:23:37.646Z,45.65
2019-03-30T11:26:06.974Z,40.75
2019-03-30T11:28:36.238Z,46.28
2019-03-30T11:31:05.765Z,39.85
2019-03-30T11:33:35.197Z,37.30
2019-03-30T11:36:04.402Z,38.63
2019-03-30T11:38:34.005Z,34.15
2019-03-30T11:41:03.364Z,38.35
2019-03-30T11:43:32.701Z,40.38
2019-03-30T11:46:02.224Z,42.65
2019-03-30T11:48:31.455Z,32.98
2019-03-30T11:51:00.751Z,30.77
2019-03-30T11:53:33.631Z,32.67
2019-03-30T11:56:02.926Z,30.27
2019-03-30T11:58:32.193Z,29.57
2019-03-30T12:01:01.500Z,25.80
2019-03-30T12:03:30.986Z,27.17
2019-03-30T12:06:00.149Z,27.48
2019-03-30T12:08:29.339Z,28.23
2019-03-30T12:10:58.507Z,26.82
2019-03-30T12:13:27.757Z,36.10
2019-03-30T12:15:56.932Z,33.48
2019-03-30T12:18:26.277Z,32.83
2019-03-30T12:20:55.509Z,38.78
2019-03-30T12:23:24.764Z,31.27
2019-03-30T12:25:53.931Z,33.92
2019-03-30T12:28:23.186Z,34.83
2019-03-30T12:30:52.496Z,35.85
2019-03-30T12:33:21.721Z,38.75
2019-03-30T12:35:50.949Z,36.42
2019-03-30T12:38:20.228Z,34.23
2019-03-30T12:40:49.606Z,30.65
2019-03-30T12:43:18.851Z,31.60
2019-03-30T12:45:48.124Z,36.48
2019-03-30T12:48:17.384Z,31.12
2019-03-30T12:50:46.741Z,30.10
2019-03-30T12:53:15.971Z,27.82
2019-03-30T12:55:49.626Z,28.57
2019-03-30T12:58:16.044Z,26.30
2019-03-30T13:00:45.238Z,23.98
2019-03-30T13:03:14.568Z,24.75
2019-03-30T13:05:43.867Z,25.00
2019-03-30T13:08:13.113Z,29.67
2019-03-30T13:10:45.282Z,28.62
2019-03-30T13:13:13.297Z,29.35
2019-03-30T13:15:42.571Z,28.77
2019-03-30T13:18:11.766Z,32.25
2019-03-30T13:20:41.065Z,30.50
2019-03-30T13:23:10.256Z,33.73
2019-03-30T13:25:39.499Z,32.45
2019-03-30T13:28:08.784Z,30.37
2019-03-30T13:30:38.063Z,32.23
2019-03-30T13:33:07.292Z,30.17
2019-03-30T13:35:36.532Z,34.67
2019-03-30T13:38:05.706Z,29.23
2019-03-30T13:40:34.883Z,33.95
2019-03-30T13:43:04.147Z,36.42
2019-03-30T13:45:33.396Z,35.43
2019-03-30T13:48:02.780Z,35.50
2019-03-30T13:50:32.247Z,31.80
2019-03-30T13:53:01.555Z,33.28
2019-03-30T13:55:31.030Z,34.13
2019-03-30T13:58:00.274Z,34.98
2019-03-30T14:00:30.572Z,31.20
2019-03-30T14:02:59.963Z,32.83
2019-03-30T14:05:29.317Z,37.08
2019-03-30T14:07:58.616Z,35.80
2019-03-30T14:10:27.886Z,40.30
2019-03-30T14:12:57.197Z,35.05
2019-03-30T14:15:26.428Z,34.05
2019-03-30T14:17:55.780Z,31.50
2019-03-30T14:20:25.281Z,35.10
2019-03-30T14:22:54.607Z,34.92
2019-03-30T14:25:23.886Z,36.75
2019-03-30T14:27:53.517Z,28.80
2019-03-30T14:30:22.865Z,32.03
2019-03-30T14:32:53.446Z,40.70
2019-03-30T14:35:23.287Z,38.78
2019-03-30T14:37:52.570Z,35.50
2019-03-30T14:40:22.251Z,35.92
2019-03-30T14:42:51.489Z,37.40
2019-03-30T14:45:20.740Z,34.50
2019-03-30T14:47:50.101Z,34.27
2019-03-30T14:50:19.409Z,37.45
2019-03-30T14:52:49.247Z,35.70
2019-03-30T14:55:28.006Z,37.15
2019-03-30T14:57:58.251Z,36.17
2019-03-30T15:00:27.590Z,33.65
2019-03-30T15:02:57.110Z,36.90
2019-03-30T15:05:26.450Z,35.17
2019-03-30T15:07:55.781Z,41.90
2019-03-30T15:10:25.088Z,37.90
2019-03-30T15:12:54.435Z,39.27
2019-03-30T15:15:23.764Z,37.58
2019-03-30T15:17:53.057Z,43.85
2019-03-30T15:20:22.297Z,37.95
2019-03-30T15:22:51.725Z,35.60
2019-03-30T15:25:20.922Z,40.28
2019-03-30T15:27:50.187Z,36.53
2019-03-30T15:30:19.484Z,38.60
2019-03-30T15:32:49.173Z,36.10
2019-03-30T15:35:18.499Z,39.50
2019-03-30T15:37:47.696Z,41.23
2019-03-30T15:40:17.210Z,36.53
2019-03-30T15:42:46.555Z,38.02
2019-03-30T15:45:15.919Z,44.95
2019-03-30T15:47:45.228Z,37.03
2019-03-30T15:50:14.415Z,34.38
2019-03-30T15:52:43.634Z,43.17
2019-03-30T15:55:12.888Z,40.17
2019-03-30T15:57:42.124Z,45.03
2019-03-30T16:00:12.827Z,42.55
2019-03-30T16:02:42.113Z,37.60
2019-03-30T16:05:15.333Z,39.33
2019-03-30T16:07:43.549Z,38.90
2019-03-30T16:10:12.874Z,39.75
2019-03-30T16:12:42.190Z,39.45
2019-03-30T16:15:11.485Z,44.60
2019-03-30T16:17:40.802Z,45.20
2019-03-30T16:20:10.039Z,41.23
2019-03-30T16:22:39.418Z,43.08
2019-03-30T16:25:08.758Z,40.90
2019-03-30T16:27:39.392Z,37.55
2019-03-30T16:30:09.818Z,37.98
2019-03-30T16:32:39.110Z,39.00
2019-03-30T16:35:08.416Z,40.48
2019-03-30T16:37:37.729Z,37.33
2019-03-30T16:40:07.822Z,38.98
2019-03-30T16:42:37.141Z,41.18
2019-03-30T16:45:07.164Z,42.98
2019-03-30T16:47:36.463Z,40.50
2019-03-30T16:50:08.025Z,45.85
2019-03-30T16:52:40.825Z,40.28
2019-03-30T16:55:09.163Z,47.00
2019-03-30T16:57:43.762Z,45.05
2019-03-30T17:00:09.594Z,45.67
2019-03-30T17:02:38.978Z,52.25
2019-03-30T17:05:08.316Z,45.55
2019-03-30T17:07:37.632Z,48.10
2019-03-30T17:10:08.326Z,47.80
2019-03-30T17:12:38.807Z,42.78
2019-03-30T17:15:08.314Z,43.78
2019-03-30T17:17:37.695Z,52.20
2019-03-30T17:20:07.680Z,49.15
2019-03-30T17:22:36.985Z,44.30
2019-03-30T17:25:06.794Z,52.90
2019-03-30T17:27:36.725Z,58.10
2019-03-30T17:30:08.045Z,56.15
2019-03-30T17:32:37.379Z,51.73
2019-03-30T17:35:06.617Z,47.67
2019-03-30T17:37:35.887Z,47.60
2019-03-30T17:40:07.623Z,51.95
2019-03-30T17:42:38.747Z,45.98
2019-03-30T17:45:08.651Z,50.40
2019-03-30T17:47:38.042Z,49.93
2019-03-30T17:50:07.793Z,60.85
2019-03-30T17:52:37.437Z,53.23
2019-03-30T17:55:07.078Z,54.00
2019-03-30T17:57:36.438Z,55.15
2019-03-30T18:00:15.097Z,58.23
2019-03-30T18:02:44.582Z,49.65
2019-03-30T18:05:13.903Z,51.77
2019-03-30T18:07:43.256Z,54.98
2019-03-30T18:10:12.581Z,51.83
2019-03-30T18:12:41.800Z,59.88
2019-03-30T18:15:11.181Z,50.00
2019-03-30T18:17:40.734Z,50.48
2019-03-30T18:20:10.778Z,52.70
2019-03-30T18:22:40.242Z,54.20
2019-03-30T18:25:10.357Z,56.30
2019-03-30T18:27:39.686Z,49.60
2019-03-30T18:30:09.688Z,51.48
2019-03-30T18:32:39.000Z,50.73
2019-03-30T18:35:08.771Z,52.45
2019-03-30T18:37:38.117Z,53.20
2019-03-30T18:40:07.807Z,48.30
2019-03-30T18:42:37.121Z,48.38
2019-03-30T18:45:06.831Z,49.42
2019-03-30T18:47:36.156Z,47.40
2019-03-30T18:50:06.988Z,47.05
2019-03-30T18:52:36.267Z,57.08
2019-03-30T18:55:06.741Z,49.63
2019-03-30T18:57:35.978Z,49.30
2019-03-30T19:00:06.957Z,49.30
2019-03-30T19:02:36.704Z,56.95
2019-03-30T19:05:06.574Z,45.95
2019-03-30T19:07:35.878Z,55.83
2019-03-30T19:10:06.330Z,53.65
2019-03-30T19:12:35.886Z,46.90
2019-03-30T19:15:06.827Z,44.58
2019-03-30T19:17:36.176Z,50.78
2019-03-30T19:20:06.694Z,53.55
2019-03-30T19:22:35.963Z,49.83
2019-03-30T19:25:06.730Z,48.05
2019-03-30T19:27:36.017Z,51.35
2019-03-30T19:30:08.556Z,50.85
2019-03-30T19:32:37.842Z,49.65
2019-03-30T19:35:07.139Z,55.48
2019-03-30T19:37:36.497Z,49.35
2019-03-30T19:40:06.207Z,55.20
2019-03-30T19:42:35.485Z,47.38
2019-03-30T19:45:06.989Z,57.23
2019-03-30T19:47:36.367Z,48.75
2019-03-30T19:50:09.102Z,54.35
2019-03-30T19:52:40.234Z,49.33
2019-03-30T19:55:09.276Z,49.38
2019-03-30T19:57:38.601Z,51.50
2019-03-30T20:00:12.329Z,48.42
2019-03-30T20:02:41.876Z,47.48
2019-03-30T20:05:11.180Z,53.10
2019-03-30T20:07:40.483Z,47.53
2019-03-30T20:10:09.813Z,50.33
2019-03-30T20:12:39.194Z,48.42
2019-03-30T20:15:08.491Z,53.58
2019-03-30T20:17:37.936Z,49.73
2019-03-30T20:20:07.173Z,64.72
2019-03-30T20:22:36.541Z,54.33
2019-03-30T20:25:07.993Z,56.23
2019-03-30T20:27:37.267Z,49.75
2019-03-30T20:30:08.098Z,49.55
2019-03-30T20:32:38.374Z,51.85
2019-03-30T20:35:08.435Z,46.98
2019-03-30T20:37:37.736Z,49.20
2019-03-30T20:40:08.540Z,50.05
2019-03-30T20:42:37.883Z,47.93
2019-03-30T20:45:07.185Z,53.35
2019-03-30T20:47:36.491Z,54.25
2019-03-30T20:50:06.897Z,52.38
2019-03-30T20:52:36.191Z,50.70
2019-03-30T20:55:06.260Z,54.85
2019-03-30T20:57:35.493Z,49.58
2019-03-30T21:00:08.144Z,50.83
2019-03-30T21:02:38.493Z,50.43
2019-03-30T21:05:08.020Z,50.05
2019-03-30T21:07:37.286Z,50.98
2019-03-30T21:10:08.225Z,46.98
2019-03-30T21:12:37.502Z,49.88
2019-03-30T21:15:07.875Z,54.58
2019-03-30T21:17:37.254Z,49.88
2019-03-30T21:20:06.520Z,52.83
2019-03-30T21:22:35.894Z,51.05
2019-03-30T21:25:05.964Z,48.80
2019-03-30T21:27:35.274Z,51.40
2019-03-30T21:30:11.344Z,47.53
2019-03-30T21:32:42.279Z,49.95
2019-03-30T21:35:11.645Z,50.75
2019-03-30T21:37:40.976Z,49.98
2019-03-30T21:40:10.827Z,49.18
2019-03-30T21:42:40.044Z,48.15
2019-03-30T21:45:09.415Z,50.58
2019-03-30T21:47:38.774Z,47.10
2019-03-30T21:50:08.071Z,51.60
2019-03-30T21:52:37.371Z,46.85
2019-03-30T21:55:07.222Z,43.50
2019-03-30T21:57:36.666Z,46.88
2019-03-30T22:00:10.251Z,44.30
2019-03-30T22:02:39.083Z,48.25
2019-03-30T22:05:08.372Z,46.45
2019-03-30T22:07:37.652Z,49.05
2019-03-30T22:10:08.558Z,45.60
2019-03-30T22:12:39.439Z,48.52
2019-03-30T22:15:08.727Z,43.00
2019-03-30T22:17:38.012Z,47.40
2019-03-30T22:20:07.398Z,40.50
2019-03-30T22:22:36.650Z,43.15
2019-03-30T22:25:09.313Z,44.05
2019-03-30T22:27:38.569Z,43.50
2019-03-30T22:30:07.824Z,43.50
2019-03-30T22:32:37.046Z,44.93
2019-03-30T22:35:06.506Z,42.70
2019-03-30T22:37:35.860Z,46.85
2019-03-30T22:40:08.055Z,45.65
2019-03-30T22:42:37.278Z,42.83
2019-03-30T22:45:07.437Z,43.08
2019-03-30T22:47:36.681Z,42.03
2019-03-30T22:50:07.714Z,42.75
2019-03-30T22:52:36.886Z,42.50
2019-03-30T22:55:06.844Z,42.10
2019-03-30T22:57:36.079Z,42.83
2019-03-30T23:00:08.466Z,40.52
2019-03-30T23:02:39.313Z,39.42
2019-03-30T23:05:08.590Z,36.98
2019-03-30T23:07:37.771Z,38.88
2019-03-30T23:10:07.286Z,42.10
2019-03-30T23:12:36.480Z,39.27
2019-03-30T23:15:05.705Z,39.78
2019-03-30T23:17:34.976Z,40.03
2019-03-30T23:20:05.485Z,37.50
2019-03-30T23:22:34.851Z,44.33
2019-03-30T23:25:06.118Z,43.30
2019-03-30T23:27:35.374Z,44.90
2019-03-30T23:30:06.451Z,42.08
2019-03-30T23:32:35.697Z,41.55
2019-03-30T23:35:06.354Z,39.15
2019-03-30T23:37:35.618Z,38.42
2019-03-30T23:40:07.640Z,41.18
2019-03-30T23:42:36.910Z,39.67
